Terminal Aerodrome Forecast
Issued by NWS King Salmon, AK

Home | Current Version | Previous Version | Text Only | Print | Product List | Glossary On
Versions: 1 2 3 4 5 6 7 8 9 10 11 12 13 14 15 16 17 18 19 20 21 22 23 24 25 26 27 28 29 30 31 32 33 34 35 36 37 38 39 40 41 42 43 44 45 46 47
000
FTAK31 PANC 251140
TAFAKN
TAF
PAKN 251140Z 2512/2612 12012KT 3SM -SN BR OVC015
      TEMPO 2512/2514 1SM -SN BR
     FM251400 20018G28KT 2SM -SHSN BR OVC009
     FM260000 20012G20KT P6SM VCSH SCT035 BKN050=

USA.gov is the U.S. government's official web portal to all federal, state and local government web resources and services.